Terminal Aerodrome Forecast
Issued by NWS

Home | Current Version | Previous Version | Graphics & Text | Print | Product List | Glossary On
Versions: 1 2 3 4 5 6 7 8 9 10 11 12 13 14 15 16 17 18 19 20
112
FTUS43 KMPX 270226 AAA
TAFAXN
TAF AMD
KAXN 270226Z 2702/2724 08012KT P6SM OVC030
     FM270500 08012KT P6SM OVC040
     FM271100 08015G24KT P6SM VCSH BKN040 OVC100
     FM271800 08020G30KT 5SM -RA OVC050=

USA.gov is the U.S. government's official web portal to all federal, state and local government web resources and services.